createdAt,value
2017-07-19T00:02:04.781Z,18.53
2017-07-19T00:04:37.062Z,18.55
2017-07-19T00:07:09.410Z,18.56
2017-07-19T00:09:41.645Z,18.52
2017-07-19T00:12:14.015Z,18.55
2017-07-19T00:14:46.607Z,18.52
2017-07-19T00:17:18.722Z,18.61
2017-07-19T00:19:50.934Z,18.57
2017-07-19T00:22:23.241Z,18.59
2017-07-19T00:24:55.553Z,18.53
2017-07-19T00:27:27.978Z,18.52
2017-07-19T00:30:00.397Z,18.49
2017-07-19T00:32:32.868Z,18.44
2017-07-19T00:35:05.249Z,18.41
2017-07-19T00:37:37.686Z,18.36
2017-07-19T00:40:10.133Z,18.36
2017-07-19T00:42:42.619Z,18.38
2017-07-19T00:45:14.896Z,18.37
2017-07-19T00:47:47.333Z,18.33
2017-07-19T00:50:19.719Z,18.31
2017-07-19T00:52:52.497Z,18.24
2017-07-19T00:55:24.682Z,18.25
2017-07-19T00:57:57.006Z,18.21
2017-07-19T01:00:29.273Z,18.19
2017-07-19T01:03:01.530Z,18.17
2017-07-19T01:05:33.821Z,18.14
2017-07-19T01:08:06.153Z,18.13
2017-07-19T01:10:38.558Z,18.12
2017-07-19T01:13:11.076Z,18.11
2017-07-19T01:15:43.406Z,18.12
2017-07-19T01:18:15.782Z,18.09
2017-07-19T01:20:48.073Z,18.07
2017-07-19T01:23:20.506Z,18.02
2017-07-19T01:25:52.857Z,17.98
2017-07-19T01:28:25.178Z,17.97
2017-07-19T01:30:57.530Z,17.92
2017-07-19T01:33:29.938Z,17.89
2017-07-19T01:36:02.292Z,17.88
2017-07-19T01:38:34.626Z,17.83
2017-07-19T01:41:06.945Z,17.85
2017-07-19T01:43:39.294Z,17.82
2017-07-19T01:46:11.569Z,17.78
2017-07-19T01:48:44.025Z,17.71
2017-07-19T01:51:16.208Z,17.70
2017-07-19T01:53:48.603Z,17.68
2017-07-19T01:56:20.934Z,17.65
2017-07-19T01:58:53.289Z,17.64
2017-07-19T02:01:25.591Z,17.58
2017-07-19T02:03:57.981Z,17.60
2017-07-19T02:06:30.217Z,17.54
2017-07-19T02:09:02.577Z,17.49
2017-07-19T02:11:34.661Z,17.45
2017-07-19T02:14:07.065Z,17.37
2017-07-19T02:16:39.392Z,17.36
2017-07-19T02:19:11.679Z,17.36
2017-07-19T02:21:44.010Z,17.32
2017-07-19T02:24:16.484Z,17.30
2017-07-19T02:26:48.918Z,17.21
2017-07-19T02:29:21.119Z,17.24
2017-07-19T02:31:53.338Z,17.26
2017-07-19T02:34:25.760Z,17.21
2017-07-19T02:36:57.964Z,17.17
2017-07-19T02:39:30.213Z,17.14
2017-07-19T02:42:02.516Z,17.17
2017-07-19T02:44:34.966Z,17.15
2017-07-19T02:47:07.217Z,17.13
2017-07-19T02:49:39.727Z,17.08
2017-07-19T02:52:11.989Z,17.07
2017-07-19T02:54:44.429Z,17.01
2017-07-19T02:57:16.613Z,16.99
2017-07-19T02:59:48.930Z,16.93
2017-07-19T03:02:21.619Z,16.94
2017-07-19T03:04:54.102Z,16.90
2017-07-19T03:07:26.361Z,16.87
2017-07-19T03:09:59.120Z,16.88
2017-07-19T03:12:31.254Z,16.86
2017-07-19T03:15:03.689Z,16.88
2017-07-19T03:17:35.928Z,16.88
2017-07-19T03:20:08.369Z,16.84
2017-07-19T03:22:47.974Z,16.81
2017-07-19T03:25:20.341Z,16.76
2017-07-19T03:27:52.708Z,16.74
2017-07-19T03:30:25.142Z,16.71
2017-07-19T03:32:57.490Z,16.67
2017-07-19T03:35:29.888Z,16.65
2017-07-19T03:38:02.162Z,16.67
2017-07-19T03:40:34.651Z,16.67
2017-07-19T03:43:06.569Z,16.72
2017-07-19T03:45:38.957Z,16.67
2017-07-19T03:48:11.498Z,16.68
2017-07-19T03:50:43.870Z,16.65
2017-07-19T03:53:16.185Z,16.62
2017-07-19T03:55:48.441Z,16.62
2017-07-19T03:58:20.687Z,16.65
2017-07-19T04:00:53.009Z,16.64
2017-07-19T04:03:25.269Z,16.64
2017-07-19T04:05:57.546Z,16.68
2017-07-19T04:08:29.840Z,16.69
2017-07-19T04:11:02.158Z,16.77
2017-07-19T04:13:34.514Z,16.81
2017-07-19T04:16:07.017Z,16.91
2017-07-19T04:18:39.274Z,17.07
2017-07-19T04:21:11.678Z,17.25
2017-07-19T04:23:43.899Z,17.52
2017-07-19T04:26:16.375Z,17.90
2017-07-19T04:28:48.862Z,18.68
2017-07-19T04:31:21.513Z,19.24
2017-07-19T04:33:53.846Z,19.65
2017-07-19T04:36:26.245Z,19.98
2017-07-19T04:38:58.665Z,20.37
2017-07-19T04:41:31.041Z,20.64
2017-07-19T04:44:03.493Z,20.71
2017-07-19T04:46:35.950Z,21.04
2017-07-19T04:49:08.549Z,21.18
2017-07-19T04:51:41.165Z,21.55
2017-07-19T04:54:13.713Z,22.00
2017-07-19T04:56:46.182Z,21.58
2017-07-19T04:59:18.690Z,21.67
2017-07-19T05:01:51.165Z,21.72
2017-07-19T05:04:23.562Z,21.97
2017-07-19T05:06:55.949Z,22.25
2017-07-19T05:09:28.441Z,22.41
2017-07-19T05:12:00.778Z,22.59
2017-07-19T05:14:33.220Z,22.54
2017-07-19T05:17:05.794Z,22.86
2017-07-19T05:19:38.374Z,23.31
2017-07-19T05:22:10.790Z,23.48
2017-07-19T05:24:43.114Z,23.91
2017-07-19T05:27:15.717Z,24.00
2017-07-19T05:29:48.176Z,23.75
2017-07-19T05:32:20.757Z,24.29
2017-07-19T05:34:53.435Z,24.80
2017-07-19T05:37:25.831Z,24.73
2017-07-19T05:39:58.173Z,24.78
2017-07-19T05:42:30.612Z,24.68
2017-07-19T05:45:03.013Z,25.01
2017-07-19T05:47:35.578Z,25.21
2017-07-19T05:50:08.160Z,24.82
2017-07-19T05:52:40.382Z,25.11
2017-07-19T05:55:12.722Z,25.34
2017-07-19T05:57:45.212Z,25.55
2017-07-19T06:00:17.589Z,26.22
2017-07-19T06:02:50.296Z,26.95
2017-07-19T06:05:22.523Z,26.17
2017-07-19T06:07:54.902Z,26.47
2017-07-19T06:10:27.286Z,26.45
2017-07-19T06:12:59.866Z,26.72
2017-07-19T06:15:32.076Z,27.07
2017-07-19T06:18:04.609Z,27.24
2017-07-19T06:20:36.861Z,27.18
2017-07-19T06:23:09.122Z,26.81
2017-07-19T06:25:41.493Z,26.32
2017-07-19T06:28:13.757Z,26.43
2017-07-19T06:30:46.242Z,26.81
2017-07-19T06:33:18.665Z,26.93
2017-07-19T06:35:51.038Z,26.79
2017-07-19T06:38:23.378Z,26.97
2017-07-19T06:40:55.861Z,27.11
2017-07-19T06:43:28.154Z,27.97
2017-07-19T06:46:00.512Z,28.96
2017-07-19T06:48:33.018Z,29.12
2017-07-19T06:51:05.239Z,29.10
2017-07-19T06:53:37.629Z,29.01
2017-07-19T06:56:10.114Z,29.41
2017-07-19T06:58:42.611Z,29.77
2017-07-19T07:01:14.953Z,29.94
2017-07-19T07:03:47.569Z,29.97
2017-07-19T07:06:20.017Z,29.68
2017-07-19T07:08:52.550Z,29.89
2017-07-19T07:11:24.862Z,29.72
2017-07-19T07:13:57.350Z,30.08
2017-07-19T07:16:29.615Z,30.76
2017-07-19T07:19:02.085Z,30.81
2017-07-19T07:21:34.479Z,30.69
2017-07-19T07:24:06.945Z,30.71
2017-07-19T07:26:39.328Z,30.97
2017-07-19T07:29:11.647Z,30.85
2017-07-19T07:31:43.980Z,30.30
2017-07-19T07:34:16.560Z,29.29
2017-07-19T07:36:48.868Z,28.80
2017-07-19T07:39:21.181Z,28.38
2017-07-19T07:41:53.411Z,28.38
2017-07-19T07:44:25.809Z,28.24
2017-07-19T07:46:58.257Z,28.64
2017-07-19T07:49:30.786Z,29.44
2017-07-19T07:52:03.323Z,30.02
2017-07-19T07:54:35.710Z,29.94
2017-07-19T07:57:08.129Z,30.17
2017-07-19T07:59:40.559Z,30.49
2017-07-19T08:02:12.810Z,30.73
2017-07-19T08:04:45.146Z,30.10
2017-07-19T08:07:17.457Z,29.79
2017-07-19T08:09:49.905Z,29.87
2017-07-19T08:12:22.324Z,29.58
2017-07-19T08:14:54.729Z,29.43
2017-07-19T08:17:27.081Z,29.68
2017-07-19T08:19:59.669Z,30.29
2017-07-19T08:22:31.975Z,30.83
2017-07-19T08:25:04.263Z,30.96
2017-07-19T08:27:36.656Z,30.94
2017-07-19T08:30:09.079Z,30.64
2017-07-19T08:32:41.326Z,31.04
2017-07-19T08:35:13.881Z,31.13
2017-07-19T08:37:46.018Z,31.54
2017-07-19T08:40:18.337Z,31.50
2017-07-19T08:42:50.636Z,32.05
2017-07-19T08:45:23.192Z,31.98
2017-07-19T08:47:55.399Z,31.80
2017-07-19T08:50:27.637Z,31.69
2017-07-19T08:52:59.893Z,31.55
2017-07-19T08:55:32.285Z,31.76
2017-07-19T08:58:04.736Z,32.53
2017-07-19T09:00:37.013Z,33.00
2017-07-19T09:03:09.282Z,32.96
2017-07-19T09:05:41.587Z,33.11
2017-07-19T09:08:13.994Z,33.10
2017-07-19T09:10:46.342Z,33.27
2017-07-19T09:13:18.497Z,32.94
2017-07-19T09:15:50.759Z,33.27
2017-07-19T09:18:22.993Z,33.23
2017-07-19T09:20:55.381Z,33.50
2017-07-19T09:23:27.645Z,33.39
2017-07-19T09:26:00.028Z,33.50
2017-07-19T09:28:32.422Z,33.83
2017-07-19T09:31:05.502Z,33.55
2017-07-19T09:33:38.790Z,33.45
2017-07-19T09:36:11.496Z,33.17
2017-07-19T09:38:43.832Z,32.80
2017-07-19T09:41:16.314Z,33.10
2017-07-19T09:43:48.638Z,32.94
2017-07-19T09:46:21.006Z,32.93
2017-07-19T09:48:53.441Z,32.65
2017-07-19T09:51:25.844Z,32.63
2017-07-19T09:53:58.125Z,32.52
2017-07-19T09:56:30.412Z,32.98
2017-07-19T09:59:02.822Z,33.26
2017-07-19T10:01:35.221Z,33.16
2017-07-19T10:04:07.485Z,33.43
2017-07-19T10:06:39.989Z,34.08
2017-07-19T10:09:12.314Z,34.07
2017-07-19T10:11:44.846Z,33.90
2017-07-19T10:14:17.148Z,34.28
2017-07-19T10:16:49.453Z,34.35
2017-07-19T10:19:21.733Z,33.76
2017-07-19T10:21:54.227Z,33.66
2017-07-19T10:24:26.454Z,33.73
2017-07-19T10:26:58.796Z,33.73
2017-07-19T10:29:31.063Z,34.04
2017-07-19T10:32:03.725Z,33.94
2017-07-19T10:34:35.638Z,33.49
2017-07-19T10:37:08.399Z,33.18
2017-07-19T10:39:40.501Z,32.97
2017-07-19T10:42:13.001Z,32.63
2017-07-19T10:44:45.454Z,32.90
2017-07-19T10:47:17.978Z,33.43
2017-07-19T10:49:50.155Z,33.18
2017-07-19T10:52:22.405Z,33.37
2017-07-19T10:54:55.557Z,33.50
2017-07-19T10:57:28.157Z,33.84
2017-07-19T11:00:00.466Z,33.71
2017-07-19T11:02:32.854Z,33.82
2017-07-19T11:05:05.023Z,33.76
2017-07-19T11:07:37.274Z,33.78
2017-07-19T11:10:09.416Z,33.55
2017-07-19T11:12:41.691Z,33.92
2017-07-19T11:15:14.129Z,34.38
2017-07-19T11:17:46.513Z,33.92
2017-07-19T11:20:18.765Z,33.91
2017-07-19T11:22:51.053Z,33.99
2017-07-19T11:25:23.282Z,33.59
2017-07-19T11:27:55.702Z,34.07
2017-07-19T11:30:27.957Z,34.29
2017-07-19T11:33:00.302Z,34.05
2017-07-19T11:35:32.574Z,33.92
2017-07-19T11:38:05.002Z,33.72
2017-07-19T11:40:37.432Z,33.77
2017-07-19T11:43:09.674Z,33.84
2017-07-19T11:45:42.012Z,33.94
2017-07-19T11:48:14.238Z,33.72
2017-07-19T11:50:46.476Z,34.15
2017-07-19T11:53:18.832Z,34.32
2017-07-19T11:55:51.188Z,34.04
2017-07-19T11:58:23.441Z,34.19
2017-07-19T12:00:55.835Z,34.09
2017-07-19T12:03:28.237Z,33.87
2017-07-19T12:06:00.558Z,34.05
2017-07-19T12:08:32.881Z,34.05
2017-07-19T12:11:05.313Z,34.38
2017-07-19T12:13:37.750Z,34.54
2017-07-19T12:16:09.865Z,35.07
2017-07-19T12:18:42.185Z,35.26
2017-07-19T12:21:14.517Z,35.13
2017-07-19T12:23:46.829Z,35.41
2017-07-19T12:26:19.373Z,36.26
2017-07-19T12:28:51.917Z,36.29
2017-07-19T12:31:24.473Z,35.96
2017-07-19T12:33:56.568Z,35.77
2017-07-19T12:36:28.825Z,35.74
2017-07-19T12:39:01.251Z,35.50
2017-07-19T12:41:33.690Z,35.51
2017-07-19T12:44:06.144Z,35.89
2017-07-19T12:46:38.342Z,35.87
2017-07-19T12:49:10.642Z,35.47
2017-07-19T12:51:43.019Z,35.50
2017-07-19T12:54:15.404Z,35.75
2017-07-19T12:56:47.653Z,36.08
2017-07-19T12:59:19.935Z,35.48
2017-07-19T13:01:52.294Z,35.16
2017-07-19T13:04:24.544Z,35.28
2017-07-19T13:06:56.850Z,35.36
2017-07-19T13:09:29.211Z,35.65
2017-07-19T13:12:01.577Z,35.59
2017-07-19T13:14:33.998Z,35.70
2017-07-19T13:17:06.271Z,35.34
2017-07-19T13:19:38.841Z,35.46
2017-07-19T13:22:11.079Z,35.41
2017-07-19T13:24:43.414Z,35.59
2017-07-19T13:27:15.725Z,35.55
2017-07-19T13:29:48.137Z,35.37
2017-07-19T13:32:20.615Z,34.93
2017-07-19T13:34:53.153Z,34.47
2017-07-19T13:37:25.527Z,34.38
2017-07-19T13:39:58.014Z,34.30
2017-07-19T13:42:30.458Z,34.32
2017-07-19T13:45:02.939Z,34.73
2017-07-19T13:47:35.298Z,35.09
2017-07-19T13:50:07.653Z,35.21
2017-07-19T13:52:39.950Z,35.28
2017-07-19T13:55:12.322Z,35.29
2017-07-19T13:57:44.726Z,35.54
2017-07-19T14:00:17.167Z,35.42
2017-07-19T14:02:49.493Z,35.33
2017-07-19T14:05:21.767Z,35.12
2017-07-19T14:07:54.198Z,34.99
2017-07-19T14:10:26.507Z,34.78
2017-07-19T14:12:58.840Z,34.58
2017-07-19T14:15:31.461Z,34.72
2017-07-19T14:18:03.519Z,34.57
2017-07-19T14:20:35.970Z,34.49
2017-07-19T14:23:08.294Z,34.44
2017-07-19T14:25:40.825Z,34.61
2017-07-19T14:28:13.316Z,34.53
2017-07-19T14:30:46.069Z,34.22
2017-07-19T14:33:18.829Z,34.09
2017-07-19T14:35:51.065Z,34.29
2017-07-19T14:38:24.678Z,34.37
2017-07-19T14:40:56.586Z,34.45
2017-07-19T14:43:28.869Z,34.34
2017-07-19T14:46:01.329Z,34.55
2017-07-19T14:48:33.497Z,34.60
2017-07-19T14:51:05.841Z,34.63
2017-07-19T14:53:38.141Z,34.37
2017-07-19T14:56:10.555Z,34.29
2017-07-19T14:58:42.798Z,34.41
2017-07-19T15:01:15.176Z,34.35
2017-07-19T15:03:47.529Z,34.13
2017-07-19T15:06:19.993Z,33.97
2017-07-19T15:08:52.249Z,33.80
2017-07-19T15:11:24.689Z,33.70
2017-07-19T15:13:56.961Z,33.57
2017-07-19T15:16:29.412Z,33.56
2017-07-19T15:19:01.667Z,33.41
2017-07-19T15:21:34.062Z,33.39
2017-07-19T15:24:06.334Z,33.37
2017-07-19T15:26:38.717Z,33.41
2017-07-19T15:29:11.072Z,33.66
2017-07-19T15:31:43.438Z,33.95
2017-07-19T15:34:15.900Z,34.14
2017-07-19T15:36:47.973Z,34.28
2017-07-19T15:39:20.254Z,34.23
2017-07-19T15:41:52.618Z,34.16
2017-07-19T15:44:24.935Z,34.09
2017-07-19T15:46:57.153Z,33.99
2017-07-19T15:49:29.459Z,33.87
2017-07-19T15:52:01.871Z,33.78
2017-07-19T15:54:34.153Z,33.77
2017-07-19T15:57:06.486Z,33.60
2017-07-19T15:59:38.933Z,33.55
2017-07-19T16:02:11.181Z,33.43
2017-07-19T16:04:43.389Z,33.32
2017-07-19T16:07:15.845Z,33.19
2017-07-19T16:09:48.343Z,33.12
2017-07-19T16:12:20.850Z,32.94
2017-07-19T16:14:52.876Z,32.80
2017-07-19T16:17:25.196Z,32.72
2017-07-19T16:19:57.452Z,32.52
2017-07-19T16:22:29.777Z,32.28
2017-07-19T16:25:02.013Z,32.10
2017-07-19T16:27:34.285Z,31.95
2017-07-19T16:30:06.481Z,31.87
2017-07-19T16:32:38.932Z,31.77
2017-07-19T16:35:11.311Z,31.71
2017-07-19T16:37:43.555Z,31.68
2017-07-19T16:40:15.987Z,31.58
2017-07-19T16:42:48.535Z,31.40
2017-07-19T16:45:20.902Z,31.23
2017-07-19T16:47:53.147Z,31.13
2017-07-19T16:50:25.556Z,30.85
2017-07-19T16:52:57.978Z,29.25
2017-07-19T16:55:30.448Z,28.05
2017-07-19T16:58:03.117Z,27.29
2017-07-19T17:00:35.378Z,26.56
2017-07-19T17:03:07.812Z,25.81
2017-07-19T17:05:40.316Z,25.36
2017-07-19T17:08:12.805Z,24.87
2017-07-19T17:10:45.046Z,23.85
2017-07-19T17:13:17.454Z,23.40
2017-07-19T17:15:49.708Z,22.78
2017-07-19T17:18:22.067Z,22.33
2017-07-19T17:20:54.414Z,21.90
2017-07-19T17:23:26.904Z,21.87
2017-07-19T17:25:59.145Z,21.49
2017-07-19T17:28:31.530Z,21.49
2017-07-19T17:31:03.754Z,21.38
2017-07-19T17:33:36.168Z,21.38
2017-07-19T17:36:08.618Z,21.37
2017-07-19T17:38:40.854Z,21.49
2017-07-19T17:41:13.101Z,21.55
2017-07-19T17:43:45.471Z,21.59
2017-07-19T17:46:17.677Z,21.62
2017-07-19T17:48:49.947Z,21.70
2017-07-19T17:51:22.445Z,21.61
2017-07-19T17:53:54.753Z,21.54
2017-07-19T17:56:27.007Z,21.60
2017-07-19T17:58:59.442Z,21.70
2017-07-19T18:01:31.632Z,21.79
2017-07-19T18:04:03.927Z,21.89
2017-07-19T18:06:36.261Z,21.97
2017-07-19T18:09:08.671Z,22.01
2017-07-19T18:11:40.942Z,22.00
2017-07-19T18:14:13.275Z,21.93
2017-07-19T18:16:45.550Z,21.91
2017-07-19T18:19:17.901Z,21.87
2017-07-19T18:21:50.130Z,21.85
2017-07-19T18:24:22.703Z,21.85
2017-07-19T18:26:55.074Z,21.81
2017-07-19T18:29:27.453Z,21.81
2017-07-19T18:31:59.839Z,21.79
2017-07-19T18:34:32.161Z,21.78
2017-07-19T18:37:04.359Z,21.78
2017-07-19T18:39:36.680Z,21.76
2017-07-19T18:42:09.006Z,21.77
2017-07-19T18:44:41.524Z,21.77
2017-07-19T18:47:13.972Z,21.79
2017-07-19T18:49:46.479Z,21.80
2017-07-19T18:52:18.781Z,21.81
2017-07-19T18:54:51.152Z,21.72
2017-07-19T18:57:23.533Z,21.71
2017-07-19T18:59:55.875Z,21.70
2017-07-19T19:02:28.757Z,21.61
2017-07-19T19:05:00.744Z,21.51
2017-07-19T19:07:33.013Z,21.50
2017-07-19T19:10:05.321Z,21.32
2017-07-19T19:12:37.761Z,21.13
2017-07-19T19:15:10.344Z,21.02
2017-07-19T19:17:43.221Z,20.94
2017-07-19T19:20:15.152Z,20.84
2017-07-19T19:22:47.395Z,20.96
2017-07-19T19:25:19.734Z,21.03
2017-07-19T19:27:52.164Z,21.10
2017-07-19T19:30:24.362Z,20.96
2017-07-19T19:32:56.730Z,20.90
2017-07-19T19:35:29.108Z,20.89
2017-07-19T19:38:01.510Z,20.91
2017-07-19T19:40:33.670Z,20.94
2017-07-19T19:43:05.968Z,20.99
2017-07-19T19:45:38.234Z,20.97
2017-07-19T19:48:10.485Z,20.86
2017-07-19T19:50:42.773Z,20.73
2017-07-19T19:53:15.057Z,20.68
2017-07-19T19:55:47.477Z,20.62
2017-07-19T19:58:19.733Z,20.56
2017-07-19T20:00:52.209Z,20.49
2017-07-19T20:03:24.607Z,20.47
2017-07-19T20:05:57.202Z,20.48
2017-07-19T20:08:29.682Z,20.44
2017-07-19T20:11:02.280Z,20.38
2017-07-19T20:13:34.835Z,20.40
2017-07-19T20:16:07.331Z,20.44
2017-07-19T20:18:39.677Z,20.46
2017-07-19T20:21:12.013Z,20.46
2017-07-19T20:23:44.229Z,20.48
2017-07-19T20:26:16.551Z,20.43
2017-07-19T20:28:48.812Z,20.41
2017-07-19T20:31:21.261Z,20.45
2017-07-19T20:33:53.537Z,20.50
2017-07-19T20:36:26.039Z,20.41
2017-07-19T20:38:58.378Z,20.45
2017-07-19T20:41:30.983Z,20.48
2017-07-19T20:44:03.285Z,20.43
2017-07-19T20:46:35.514Z,20.40
2017-07-19T20:49:07.966Z,20.37
2017-07-19T20:51:40.342Z,20.38
2017-07-19T20:54:12.738Z,20.43
2017-07-19T20:56:44.942Z,20.49
2017-07-19T20:59:17.153Z,20.48
2017-07-19T21:01:49.554Z,20.44
2017-07-19T21:04:22.088Z,20.49
2017-07-19T21:06:54.646Z,20.53
2017-07-19T21:09:27.053Z,20.55
2017-07-19T21:11:59.163Z,20.53
2017-07-19T21:14:31.306Z,20.56
2017-07-19T21:17:03.707Z,20.57
2017-07-19T21:19:36.131Z,20.55
2017-07-19T21:22:08.577Z,20.43
2017-07-19T21:24:40.861Z,20.38
2017-07-19T21:27:13.248Z,20.40
2017-07-19T21:29:45.546Z,20.33
2017-07-19T21:32:18.122Z,20.25
2017-07-19T21:34:50.649Z,20.18
2017-07-19T21:37:23.241Z,20.16
2017-07-19T21:39:55.521Z,20.13
2017-07-19T21:42:27.850Z,20.05
2017-07-19T21:45:00.174Z,20.02
2017-07-19T21:47:32.477Z,20.00
2017-07-19T21:50:04.821Z,20.02
2017-07-19T21:52:37.265Z,20.06
2017-07-19T21:55:09.611Z,20.08
2017-07-19T21:57:41.900Z,19.96
2017-07-19T22:00:14.189Z,19.93
2017-07-19T22:02:46.709Z,19.95
2017-07-19T22:05:18.965Z,19.98
2017-07-19T22:07:51.344Z,20.03
2017-07-19T22:10:23.685Z,19.99
2017-07-19T22:12:56.101Z,19.99
2017-07-19T22:15:28.597Z,20.03
2017-07-19T22:18:00.653Z,20.03
2017-07-19T22:20:32.842Z,19.97
2017-07-19T22:23:05.230Z,19.95
2017-07-19T22:25:37.642Z,19.97
2017-07-19T22:28:10.135Z,19.99
2017-07-19T22:30:42.521Z,19.97
2017-07-19T22:33:15.020Z,19.94
2017-07-19T22:35:48.076Z,19.95
2017-07-19T22:38:20.940Z,19.90
2017-07-19T22:40:53.230Z,19.85
2017-07-19T22:43:25.611Z,19.82
2017-07-19T22:45:57.855Z,19.77
2017-07-19T22:48:30.279Z,19.69
2017-07-19T22:51:02.537Z,19.68
2017-07-19T22:53:34.879Z,19.64
2017-07-19T22:56:07.222Z,19.63
2017-07-19T22:58:39.630Z,19.61
2017-07-19T23:01:11.951Z,19.59
2017-07-19T23:03:44.290Z,19.59
2017-07-19T23:06:16.742Z,19.58
2017-07-19T23:08:48.928Z,19.60
2017-07-19T23:11:21.289Z,19.60
2017-07-19T23:13:53.667Z,19.60
2017-07-19T23:16:25.795Z,19.56
2017-07-19T23:18:58.114Z,19.56
2017-07-19T23:21:30.386Z,19.51
2017-07-19T23:24:02.734Z,19.42
2017-07-19T23:26:34.974Z,19.40
2017-07-19T23:29:07.286Z,19.36
2017-07-19T23:31:39.521Z,19.32
2017-07-19T23:34:11.792Z,19.29
2017-07-19T23:36:44.209Z,19.28
2017-07-19T23:39:16.691Z,19.29
2017-07-19T23:41:49.230Z,19.30
2017-07-19T23:44:21.462Z,19.24
2017-07-19T23:46:53.853Z,19.13
2017-07-19T23:49:26.077Z,19.18
2017-07-19T23:51:58.562Z,19.08
2017-07-19T23:54:31.001Z,18.99
2017-07-19T23:57:03.242Z,18.92
2017-07-19T23:59:35.631Z,18.91
